sensor_id;sensor_type;location;lat;lon;timestamp;P1;durP1;ratioP1;P2;durP2;ratioP2
5979;SDS011;3016;50.308;8.258;2023-06-26T00:02:29;24.83;;;6.90;;
5979;SDS011;3016;50.308;8.258;2023-06-26T00:05:32;21.33;;;5.77;;
5979;SDS011;3016;50.308;8.258;2023-06-26T00:08:34;22.40;;;6.75;;
5979;SDS011;3016;50.308;8.258;2023-06-26T00:11:35;22.07;;;6.20;;
5979;SDS011;3016;50.308;8.258;2023-06-26T00:14:35;23.10;;;6.23;;
5979;SDS011;3016;50.308;8.258;2023-06-26T00:17:37;21.70;;;5.77;;
5979;SDS011;3016;50.308;8.258;2023-06-26T00:20:38;22.67;;;6.70;;
5979;SDS011;3016;50.308;8.258;2023-06-26T00:23:38;26.03;;;6.27;;
5979;SDS011;3016;50.308;8.258;2023-06-26T00:26:39;20.80;;;6.00;;
5979;SDS011;3016;50.308;8.258;2023-06-26T00:29:40;21.73;;;6.03;;
5979;SDS011;3016;50.308;8.258;2023-06-26T00:32:40;21.90;;;6.07;;
5979;SDS011;3016;50.308;8.258;2023-06-26T00:35:41;25.40;;;6.50;;
5979;SDS011;3016;50.308;8.258;2023-06-26T00:38:42;21.10;;;6.37;;
5979;SDS011;3016;50.308;8.258;2023-06-26T00:41:43;21.73;;;6.53;;
5979;SDS011;3016;50.308;8.258;2023-06-26T00:44:43;22.40;;;6.70;;
5979;SDS011;3016;50.308;8.258;2023-06-26T00:47:44;22.60;;;7.10;;
5979;SDS011;3016;50.308;8.258;2023-06-26T00:50:45;22.70;;;6.37;;
5979;SDS011;3016;50.308;8.258;2023-06-26T00:53:45;22.20;;;6.47;;
5979;SDS011;3016;50.308;8.258;2023-06-26T00:56:47;21.53;;;5.47;;
5979;SDS011;3016;50.308;8.258;2023-06-26T00:59:48;22.77;;;6.37;;
5979;SDS011;3016;50.308;8.258;2023-06-26T01:02:49;24.40;;;6.90;;
5979;SDS011;3016;50.308;8.258;2023-06-26T01:05:51;23.70;;;6.40;;
5979;SDS011;3016;50.308;8.258;2023-06-26T01:08:52;21.27;;;6.73;;
5979;SDS011;3016;50.308;8.258;2023-06-26T01:11:53;22.33;;;6.23;;
5979;SDS011;3016;50.308;8.258;2023-06-26T01:14:54;21.43;;;6.50;;
5979;SDS011;3016;50.308;8.258;2023-06-26T01:17:55;22.77;;;6.80;;
5979;SDS011;3016;50.308;8.258;2023-06-26T01:20:59;23.37;;;6.30;;
5979;SDS011;3016;50.308;8.258;2023-06-26T01:24:05;21.20;;;5.80;;
5979;SDS011;3016;50.308;8.258;2023-06-26T01:27:20;22.27;;;6.30;;
5979;SDS011;3016;50.308;8.258;2023-06-26T01:30:22;20.40;;;5.50;;
5979;SDS011;3016;50.308;8.258;2023-06-26T01:33:25;22.30;;;6.60;;
5979;SDS011;3016;50.308;8.258;2023-06-26T01:36:26;22.33;;;6.03;;
5979;SDS011;3016;50.308;8.258;2023-06-26T01:39:27;24.90;;;5.57;;
5979;SDS011;3016;50.308;8.258;2023-06-26T01:42:28;22.50;;;6.07;;
5979;SDS011;3016;50.308;8.258;2023-06-26T01:45:29;20.77;;;5.70;;
5979;SDS011;3016;50.308;8.258;2023-06-26T01:48:40;23.37;;;7.00;;
5979;SDS011;3016;50.308;8.258;2023-06-26T01:51:55;24.70;;;7.20;;
5979;SDS011;3016;50.308;8.258;2023-06-26T01:55:08;21.87;;;6.10;;
5979;SDS011;3016;50.308;8.258;2023-06-26T01:58:23;23.38;;;6.85;;
5979;SDS011;3016;50.308;8.258;2023-06-26T02:01:25;21.60;;;6.20;;
5979;SDS011;3016;50.308;8.258;2023-06-26T02:04:26;24.93;;;6.50;;
5979;SDS011;3016;50.308;8.258;2023-06-26T02:07:28;21.87;;;6.13;;
5979;SDS011;3016;50.308;8.258;2023-06-26T02:10:28;20.80;;;5.87;;
5979;SDS011;3016;50.308;8.258;2023-06-26T02:13:29;23.10;;;6.60;;
5979;SDS011;3016;50.308;8.258;2023-06-26T02:16:30;24.30;;;6.40;;
5979;SDS011;3016;50.308;8.258;2023-06-26T02:19:31;26.70;;;7.30;;
5979;SDS011;3016;50.308;8.258;2023-06-26T02:22:31;22.13;;;7.20;;
5979;SDS011;3016;50.308;8.258;2023-06-26T02:25:32;23.77;;;6.77;;
5979;SDS011;3016;50.308;8.258;2023-06-26T02:28:33;23.70;;;7.27;;
5979;SDS011;3016;50.308;8.258;2023-06-26T02:31:34;22.37;;;7.47;;
5979;SDS011;3016;50.308;8.258;2023-06-26T02:34:35;27.17;;;6.40;;
5979;SDS011;3016;50.308;8.258;2023-06-26T02:37:36;21.93;;;6.50;;
5979;SDS011;3016;50.308;8.258;2023-06-26T02:40:36;22.50;;;7.10;;
5979;SDS011;3016;50.308;8.258;2023-06-26T02:43:37;20.80;;;5.90;;
5979;SDS011;3016;50.308;8.258;2023-06-26T02:46:38;22.20;;;6.23;;
5979;SDS011;3016;50.308;8.258;2023-06-26T02:49:38;20.33;;;5.07;;
5979;SDS011;3016;50.308;8.258;2023-06-26T02:52:39;22.80;;;6.93;;
5979;SDS011;3016;50.308;8.258;2023-06-26T02:55:40;21.67;;;5.93;;
5979;SDS011;3016;50.308;8.258;2023-06-26T02:58:40;22.07;;;6.00;;
5979;SDS011;3016;50.308;8.258;2023-06-26T03:01:41;22.90;;;6.10;;
5979;SDS011;3016;50.308;8.258;2023-06-26T03:04:42;22.30;;;6.70;;
5979;SDS011;3016;50.308;8.258;2023-06-26T03:07:43;21.70;;;6.07;;
5979;SDS011;3016;50.308;8.258;2023-06-26T03:10:43;20.07;;;6.00;;
5979;SDS011;3016;50.308;8.258;2023-06-26T03:13:44;21.90;;;6.40;;
5979;SDS011;3016;50.308;8.258;2023-06-26T03:16:45;21.37;;;6.50;;
5979;SDS011;3016;50.308;8.258;2023-06-26T03:19:46;21.57;;;6.17;;
5979;SDS011;3016;50.308;8.258;2023-06-26T03:22:46;22.13;;;6.03;;
5979;SDS011;3016;50.308;8.258;2023-06-26T03:25:47;23.03;;;6.70;;
5979;SDS011;3016;50.308;8.258;2023-06-26T03:28:49;21.10;;;5.83;;
5979;SDS011;3016;50.308;8.258;2023-06-26T03:31:49;23.30;;;6.90;;
5979;SDS011;3016;50.308;8.258;2023-06-26T03:34:50;23.20;;;6.10;;
5979;SDS011;3016;50.308;8.258;2023-06-26T03:37:52;22.57;;;6.70;;
5979;SDS011;3016;50.308;8.258;2023-06-26T03:40:53;20.90;;;5.87;;
5979;SDS011;3016;50.308;8.258;2023-06-26T03:43:54;21.83;;;6.77;;
5979;SDS011;3016;50.308;8.258;2023-06-26T03:46:56;21.90;;;6.53;;
5979;SDS011;3016;50.308;8.258;2023-06-26T03:49:57;23.50;;;6.27;;
5979;SDS011;3016;50.308;8.258;2023-06-26T03:52:57;22.47;;;6.20;;
5979;SDS011;3016;50.308;8.258;2023-06-26T03:55:59;20.63;;;5.53;;
5979;SDS011;3016;50.308;8.258;2023-06-26T03:59:00;20.77;;;5.70;;
5979;SDS011;3016;50.308;8.258;2023-06-26T04:02:00;22.80;;;6.70;;
5979;SDS011;3016;50.308;8.258;2023-06-26T04:05:01;23.33;;;6.97;;
5979;SDS011;3016;50.308;8.258;2023-06-26T04:08:04;25.53;;;7.00;;
5979;SDS011;3016;50.308;8.258;2023-06-26T04:11:04;26.30;;;6.43;;
5979;SDS011;3016;50.308;8.258;2023-06-26T04:14:05;21.10;;;6.27;;
5979;SDS011;3016;50.308;8.258;2023-06-26T04:17:07;20.33;;;5.87;;
5979;SDS011;3016;50.308;8.258;2023-06-26T04:20:08;21.03;;;6.27;;
5979;SDS011;3016;50.308;8.258;2023-06-26T04:23:09;22.93;;;7.10;;
5979;SDS011;3016;50.308;8.258;2023-06-26T04:26:09;22.17;;;7.00;;
5979;SDS011;3016;50.308;8.258;2023-06-26T04:29:13;21.77;;;6.50;;
5979;SDS011;3016;50.308;8.258;2023-06-26T04:32:14;21.87;;;6.50;;
5979;SDS011;3016;50.308;8.258;2023-06-26T04:35:15;22.07;;;6.70;;
5979;SDS011;3016;50.308;8.258;2023-06-26T04:38:16;24.43;;;6.90;;
5979;SDS011;3016;50.308;8.258;2023-06-26T04:41:16;24.00;;;7.20;;
5979;SDS011;3016;50.308;8.258;2023-06-26T04:44:17;21.33;;;7.10;;
5979;SDS011;3016;50.308;8.258;2023-06-26T04:47:18;20.77;;;6.57;;
5979;SDS011;3016;50.308;8.258;2023-06-26T04:50:18;21.50;;;6.97;;
5979;SDS011;3016;50.308;8.258;2023-06-26T04:53:20;22.93;;;7.77;;
5979;SDS011;3016;50.308;8.258;2023-06-26T04:56:24;21.63;;;6.17;;
5979;SDS011;3016;50.308;8.258;2023-06-26T04:59:25;25.20;;;6.70;;
5979;SDS011;3016;50.308;8.258;2023-06-26T05:02:25;23.80;;;7.00;;
5979;SDS011;3016;50.308;8.258;2023-06-26T05:05:27;22.43;;;7.03;;
5979;SDS011;3016;50.308;8.258;2023-06-26T05:08:28;24.03;;;7.07;;
5979;SDS011;3016;50.308;8.258;2023-06-26T05:11:29;22.10;;;6.73;;
5979;SDS011;3016;50.308;8.258;2023-06-26T05:14:29;22.47;;;7.20;;
5979;SDS011;3016;50.308;8.258;2023-06-26T05:17:30;26.33;;;7.43;;
5979;SDS011;3016;50.308;8.258;2023-06-26T05:20:31;23.27;;;7.00;;
5979;SDS011;3016;50.308;8.258;2023-06-26T05:23:32;23.47;;;7.33;;
5979;SDS011;3016;50.308;8.258;2023-06-26T05:26:34;23.50;;;7.47;;
5979;SDS011;3016;50.308;8.258;2023-06-26T05:29:35;22.37;;;7.10;;
5979;SDS011;3016;50.308;8.258;2023-06-26T05:32:37;25.10;;;8.30;;
5979;SDS011;3016;50.308;8.258;2023-06-26T05:35:39;23.20;;;7.93;;
5979;SDS011;3016;50.308;8.258;2023-06-26T05:38:42;22.50;;;7.67;;
5979;SDS011;3016;50.308;8.258;2023-06-26T05:41:43;24.27;;;7.67;;
5979;SDS011;3016;50.308;8.258;2023-06-26T05:44:45;20.37;;;6.40;;
5979;SDS011;3016;50.308;8.258;2023-06-26T05:47:45;30.83;;;7.43;;
5979;SDS011;3016;50.308;8.258;2023-06-26T05:50:46;23.80;;;7.87;;
5979;SDS011;3016;50.308;8.258;2023-06-26T05:53:48;23.70;;;7.57;;
5979;SDS011;3016;50.308;8.258;2023-06-26T05:56:51;25.10;;;7.77;;
5979;SDS011;3016;50.308;8.258;2023-06-26T05:59:59;22.90;;;7.40;;
5979;SDS011;3016;50.308;8.258;2023-06-26T06:03:00;22.63;;;7.33;;
5979;SDS011;3016;50.308;8.258;2023-06-26T06:06:01;23.23;;;8.10;;
5979;SDS011;3016;50.308;8.258;2023-06-26T06:09:01;23.07;;;7.43;;
5979;SDS011;3016;50.308;8.258;2023-06-26T06:12:06;23.33;;;7.43;;
5979;SDS011;3016;50.308;8.258;2023-06-26T06:15:07;23.60;;;8.30;;
5979;SDS011;3016;50.308;8.258;2023-06-26T06:18:08;23.23;;;8.00;;
5979;SDS011;3016;50.308;8.258;2023-06-26T06:21:09;22.37;;;7.37;;
5979;SDS011;3016;50.308;8.258;2023-06-26T06:24:10;24.40;;;7.93;;
5979;SDS011;3016;50.308;8.258;2023-06-26T06:27:10;24.63;;;7.27;;
5979;SDS011;3016;50.308;8.258;2023-06-26T06:30:11;23.97;;;7.30;;
5979;SDS011;3016;50.308;8.258;2023-06-26T06:33:13;26.50;;;9.80;;
5979;SDS011;3016;50.308;8.258;2023-06-26T06:36:14;23.67;;;7.77;;
5979;SDS011;3016;50.308;8.258;2023-06-26T06:39:15;22.10;;;7.60;;
5979;SDS011;3016;50.308;8.258;2023-06-26T06:42:15;23.53;;;7.57;;
5979;SDS011;3016;50.308;8.258;2023-06-26T06:45:16;24.20;;;8.60;;
5979;SDS011;3016;50.308;8.258;2023-06-26T06:48:17;24.43;;;7.87;;
5979;SDS011;3016;50.308;8.258;2023-06-26T06:51:17;22.97;;;8.23;;
5979;SDS011;3016;50.308;8.258;2023-06-26T06:54:18;24.37;;;8.20;;
5979;SDS011;3016;50.308;8.258;2023-06-26T06:57:22;23.20;;;8.00;;
5979;SDS011;3016;50.308;8.258;2023-06-26T07:00:24;23.90;;;7.83;;
5979;SDS011;3016;50.308;8.258;2023-06-26T07:03:25;22.47;;;7.83;;
5979;SDS011;3016;50.308;8.258;2023-06-26T07:06:26;24.80;;;8.60;;
5979;SDS011;3016;50.308;8.258;2023-06-26T07:09:27;21.37;;;7.07;;
5979;SDS011;3016;50.308;8.258;2023-06-26T07:12:27;23.13;;;7.60;;
5979;SDS011;3016;50.308;8.258;2023-06-26T07:15:28;22.10;;;6.53;;
5979;SDS011;3016;50.308;8.258;2023-06-26T07:18:29;23.30;;;7.90;;
5979;SDS011;3016;50.308;8.258;2023-06-26T07:21:29;21.57;;;6.90;;
5979;SDS011;3016;50.308;8.258;2023-06-26T07:24:30;21.80;;;6.50;;
5979;SDS011;3016;50.308;8.258;2023-06-26T07:27:32;22.13;;;7.00;;
5979;SDS011;3016;50.308;8.258;2023-06-26T07:30:33;22.50;;;6.60;;
5979;SDS011;3016;50.308;8.258;2023-06-26T07:33:34;24.60;;;7.60;;
5979;SDS011;3016;50.308;8.258;2023-06-26T07:36:34;22.50;;;6.70;;
5979;SDS011;3016;50.308;8.258;2023-06-26T07:39:35;22.17;;;6.97;;
5979;SDS011;3016;50.308;8.258;2023-06-26T07:42:36;23.87;;;6.50;;
5979;SDS011;3016;50.308;8.258;2023-06-26T07:45:37;21.97;;;6.60;;
5979;SDS011;3016;50.308;8.258;2023-06-26T07:48:37;21.20;;;5.80;;
5979;SDS011;3016;50.308;8.258;2023-06-26T07:51:38;23.43;;;7.03;;
5979;SDS011;3016;50.308;8.258;2023-06-26T07:54:39;21.20;;;5.90;;
5979;SDS011;3016;50.308;8.258;2023-06-26T07:57:39;20.70;;;6.00;;
5979;SDS011;3016;50.308;8.258;2023-06-26T08:00:40;22.97;;;6.70;;
5979;SDS011;3016;50.308;8.258;2023-06-26T08:03:41;21.20;;;6.23;;
5979;SDS011;3016;50.308;8.258;2023-06-26T08:06:42;22.90;;;6.67;;
5979;SDS011;3016;50.308;8.258;2023-06-26T08:09:43;22.80;;;6.10;;
5979;SDS011;3016;50.308;8.258;2023-06-26T08:12:44;21.87;;;6.13;;
5979;SDS011;3016;50.308;8.258;2023-06-26T08:15:45;20.90;;;5.70;;
5979;SDS011;3016;50.308;8.258;2023-06-26T08:18:45;22.43;;;5.60;;
5979;SDS011;3016;50.308;8.258;2023-06-26T08:21:46;20.47;;;5.50;;
5979;SDS011;3016;50.308;8.258;2023-06-26T08:24:47;22.00;;;5.90;;
5979;SDS011;3016;50.308;8.258;2023-06-26T08:27:47;21.53;;;6.33;;
5979;SDS011;3016;50.308;8.258;2023-06-26T08:30:48;22.63;;;6.30;;
5979;SDS011;3016;50.308;8.258;2023-06-26T08:33:49;22.10;;;6.60;;
5979;SDS011;3016;50.308;8.258;2023-06-26T08:36:50;22.60;;;6.67;;
5979;SDS011;3016;50.308;8.258;2023-06-26T08:39:50;21.87;;;6.13;;
5979;SDS011;3016;50.308;8.258;2023-06-26T08:42:51;21.40;;;6.83;;
5979;SDS011;3016;50.308;8.258;2023-06-26T08:45:53;23.27;;;7.10;;
5979;SDS011;3016;50.308;8.258;2023-06-26T08:48:59;21.70;;;6.43;;
5979;SDS011;3016;50.308;8.258;2023-06-26T08:52:10;22.00;;;6.50;;
5979;SDS011;3016;50.308;8.258;2023-06-26T08:55:19;22.87;;;7.00;;
5979;SDS011;3016;50.308;8.258;2023-06-26T08:58:24;22.60;;;6.53;;
5979;SDS011;3016;50.308;8.258;2023-06-26T09:01:24;21.00;;;5.83;;
5979;SDS011;3016;50.308;8.258;2023-06-26T09:04:25;23.33;;;7.17;;
5979;SDS011;3016;50.308;8.258;2023-06-26T09:07:26;22.10;;;7.10;;
5979;SDS011;3016;50.308;8.258;2023-06-26T09:10:27;21.27;;;6.50;;
5979;SDS011;3016;50.308;8.258;2023-06-26T09:13:28;23.03;;;7.40;;
5979;SDS011;3016;50.308;8.258;2023-06-26T09:16:30;21.97;;;6.90;;
5979;SDS011;3016;50.308;8.258;2023-06-26T09:19:31;22.00;;;6.60;;
5979;SDS011;3016;50.308;8.258;2023-06-26T09:22:38;22.87;;;6.20;;
5979;SDS011;3016;50.308;8.258;2023-06-26T09:25:41;22.87;;;6.97;;
5979;SDS011;3016;50.308;8.258;2023-06-26T09:28:42;21.43;;;6.20;;
5979;SDS011;3016;50.308;8.258;2023-06-26T09:31:43;21.67;;;5.87;;
5979;SDS011;3016;50.308;8.258;2023-06-26T09:34:44;20.80;;;5.70;;
5979;SDS011;3016;50.308;8.258;2023-06-26T09:37:45;21.30;;;6.17;;
5979;SDS011;3016;50.308;8.258;2023-06-26T09:40:45;22.67;;;6.17;;
5979;SDS011;3016;50.308;8.258;2023-06-26T09:43:47;20.93;;;6.17;;
5979;SDS011;3016;50.308;8.258;2023-06-26T09:46:51;21.13;;;6.23;;
5979;SDS011;3016;50.308;8.258;2023-06-26T09:49:53;21.60;;;6.10;;
5979;SDS011;3016;50.308;8.258;2023-06-26T09:52:55;21.13;;;6.20;;
5979;SDS011;3016;50.308;8.258;2023-06-26T09:55:56;24.70;;;6.70;;
5979;SDS011;3016;50.308;8.258;2023-06-26T09:58:57;22.93;;;6.43;;
5979;SDS011;3016;50.308;8.258;2023-06-26T10:02:01;21.67;;;6.70;;
5979;SDS011;3016;50.308;8.258;2023-06-26T10:05:03;23.00;;;6.53;;
5979;SDS011;3016;50.308;8.258;2023-06-26T10:08:04;20.40;;;6.43;;
5979;SDS011;3016;50.308;8.258;2023-06-26T10:11:06;21.27;;;6.50;;
5979;SDS011;3016;50.308;8.258;2023-06-26T10:14:14;20.50;;;5.33;;
5979;SDS011;3016;50.308;8.258;2023-06-26T10:17:16;22.97;;;5.90;;
5979;SDS011;3016;50.308;8.258;2023-06-26T10:20:22;20.90;;;4.97;;
5979;SDS011;3016;50.308;8.258;2023-06-26T10:23:25;20.47;;;4.70;;
5979;SDS011;3016;50.308;8.258;2023-06-26T10:26:28;20.90;;;5.33;;
5979;SDS011;3016;50.308;8.258;2023-06-26T10:29:32;22.83;;;4.87;;
5979;SDS011;3016;50.308;8.258;2023-06-26T10:32:34;21.20;;;5.37;;
5979;SDS011;3016;50.308;8.258;2023-06-26T10:35:40;22.53;;;5.43;;
5979;SDS011;3016;50.308;8.258;2023-06-26T10:38:48;22.27;;;5.00;;
5979;SDS011;3016;50.308;8.258;2023-06-26T10:41:50;19.73;;;4.67;;
5979;SDS011;3016;50.308;8.258;2023-06-26T10:44:55;22.40;;;5.33;;
5979;SDS011;3016;50.308;8.258;2023-06-26T10:48:20;20.30;;;4.80;;
5979;SDS011;3016;50.308;8.258;2023-06-26T10:51:21;23.17;;;5.13;;
5979;SDS011;3016;50.308;8.258;2023-06-26T10:54:22;22.50;;;6.63;;
5979;SDS011;3016;50.308;8.258;2023-06-26T10:57:23;21.63;;;4.67;;
5979;SDS011;3016;50.308;8.258;2023-06-26T11:00:25;20.30;;;5.47;;
5979;SDS011;3016;50.308;8.258;2023-06-26T11:03:28;22.87;;;4.93;;
5979;SDS011;3016;50.308;8.258;2023-06-26T11:06:31;21.70;;;6.40;;
5979;SDS011;3016;50.308;8.258;2023-06-26T11:09:34;21.93;;;5.60;;
5979;SDS011;3016;50.308;8.258;2023-06-26T11:13:09;23.07;;;5.67;;
5979;SDS011;3016;50.308;8.258;2023-06-26T11:16:11;22.73;;;5.77;;
5979;SDS011;3016;50.308;8.258;2023-06-26T11:19:14;20.70;;;5.30;;
5979;SDS011;3016;50.308;8.258;2023-06-26T11:22:18;21.00;;;5.70;;
5979;SDS011;3016;50.308;8.258;2023-06-26T11:25:19;22.87;;;5.97;;
5979;SDS011;3016;50.308;8.258;2023-06-26T11:28:21;20.70;;;5.37;;
5979;SDS011;3016;50.308;8.258;2023-06-26T11:31:28;24.37;;;5.80;;
5979;SDS011;3016;50.308;8.258;2023-06-26T11:34:31;21.60;;;4.90;;
5979;SDS011;3016;50.308;8.258;2023-06-26T11:37:33;21.63;;;6.20;;
5979;SDS011;3016;50.308;8.258;2023-06-26T11:40:34;21.60;;;5.93;;
5979;SDS011;3016;50.308;8.258;2023-06-26T11:43:36;22.30;;;5.70;;
5979;SDS011;3016;50.308;8.258;2023-06-26T11:46:38;21.17;;;5.27;;
5979;SDS011;3016;50.308;8.258;2023-06-26T11:49:39;22.10;;;5.70;;
5979;SDS011;3016;50.308;8.258;2023-06-26T11:52:46;20.87;;;5.70;;
5979;SDS011;3016;50.308;8.258;2023-06-26T11:55:54;21.23;;;5.07;;
5979;SDS011;3016;50.308;8.258;2023-06-26T11:59:03;21.90;;;6.07;;
5979;SDS011;3016;50.308;8.258;2023-06-26T12:05:08;22.00;;;5.53;;
5979;SDS011;3016;50.308;8.258;2023-06-26T12:08:10;26.27;;;5.30;;
5979;SDS011;3016;50.308;8.258;2023-06-26T12:11:12;19.70;;;4.90;;
5979;SDS011;3016;50.308;8.258;2023-06-26T12:14:13;21.13;;;5.60;;
5979;SDS011;3016;50.308;8.258;2023-06-26T12:17:14;20.63;;;5.03;;
5979;SDS011;3016;50.308;8.258;2023-06-26T12:20:21;21.20;;;5.20;;
5979;SDS011;3016;50.308;8.258;2023-06-26T12:23:31;19.93;;;4.90;;
5979;SDS011;3016;50.308;8.258;2023-06-26T12:26:46;20.90;;;5.30;;
5979;SDS011;3016;50.308;8.258;2023-06-26T12:29:55;20.20;;;5.33;;
5979;SDS011;3016;50.308;8.258;2023-06-26T12:32:56;19.70;;;5.10;;
5979;SDS011;3016;50.308;8.258;2023-06-26T12:35:57;24.23;;;5.10;;
5979;SDS011;3016;50.308;8.258;2023-06-26T12:39:00;19.90;;;5.33;;
5979;SDS011;3016;50.308;8.258;2023-06-26T12:42:01;20.93;;;4.50;;
5979;SDS011;3016;50.308;8.258;2023-06-26T12:45:10;19.43;;;4.67;;
5979;SDS011;3016;50.308;8.258;2023-06-26T12:48:12;19.60;;;3.87;;
5979;SDS011;3016;50.308;8.258;2023-06-26T12:51:14;18.33;;;4.33;;
5979;SDS011;3016;50.308;8.258;2023-06-26T12:54:16;19.50;;;3.70;;
5979;SDS011;3016;50.308;8.258;2023-06-26T12:57:17;21.90;;;3.50;;
5979;SDS011;3016;50.308;8.258;2023-06-26T13:00:18;24.13;;;4.80;;
5979;SDS011;3016;50.308;8.258;2023-06-26T13:03:19;20.07;;;3.63;;
5979;SDS011;3016;50.308;8.258;2023-06-26T13:06:22;21.70;;;3.90;;
5979;SDS011;3016;50.308;8.258;2023-06-26T13:09:23;18.60;;;3.60;;
5979;SDS011;3016;50.308;8.258;2023-06-26T13:12:25;19.20;;;3.70;;
5979;SDS011;3016;50.308;8.258;2023-06-26T13:15:25;19.97;;;3.97;;
5979;SDS011;3016;50.308;8.258;2023-06-26T13:18:26;19.00;;;3.07;;
5979;SDS011;3016;50.308;8.258;2023-06-26T13:21:27;19.03;;;3.23;;
5979;SDS011;3016;50.308;8.258;2023-06-26T13:24:28;20.73;;;3.93;;
5979;SDS011;3016;50.308;8.258;2023-06-26T13:27:29;18.57;;;3.40;;
5979;SDS011;3016;50.308;8.258;2023-06-26T13:30:29;17.63;;;3.03;;
5979;SDS011;3016;50.308;8.258;2023-06-26T13:33:31;19.40;;;3.10;;
5979;SDS011;3016;50.308;8.258;2023-06-26T13:36:32;21.13;;;3.20;;
5979;SDS011;3016;50.308;8.258;2023-06-26T13:39:35;17.90;;;2.60;;
5979;SDS011;3016;50.308;8.258;2023-06-26T13:42:36;21.00;;;3.20;;
5979;SDS011;3016;50.308;8.258;2023-06-26T13:45:37;20.60;;;3.37;;
5979;SDS011;3016;50.308;8.258;2023-06-26T13:48:37;18.23;;;2.63;;
5979;SDS011;3016;50.308;8.258;2023-06-26T13:51:38;19.03;;;2.70;;
5979;SDS011;3016;50.308;8.258;2023-06-26T13:54:45;20.00;;;2.50;;
5979;SDS011;3016;50.308;8.258;2023-06-26T13:57:46;18.67;;;2.97;;
5979;SDS011;3016;50.308;8.258;2023-06-26T14:00:47;17.50;;;2.27;;
5979;SDS011;3016;50.308;8.258;2023-06-26T14:03:47;20.07;;;2.97;;
5979;SDS011;3016;50.308;8.258;2023-06-26T14:06:48;19.03;;;2.83;;
5979;SDS011;3016;50.308;8.258;2023-06-26T14:09:49;17.10;;;2.40;;
5979;SDS011;3016;50.308;8.258;2023-06-26T14:12:49;20.07;;;2.30;;
5979;SDS011;3016;50.308;8.258;2023-06-26T14:15:51;18.50;;;2.23;;
5979;SDS011;3016;50.308;8.258;2023-06-26T14:18:52;17.13;;;2.13;;
5979;SDS011;3016;50.308;8.258;2023-06-26T14:21:53;18.80;;;2.77;;
5979;SDS011;3016;50.308;8.258;2023-06-26T14:24:53;23.43;;;2.73;;
5979;SDS011;3016;50.308;8.258;2023-06-26T14:27:57;19.07;;;2.27;;
5979;SDS011;3016;50.308;8.258;2023-06-26T14:30:58;19.43;;;2.10;;
5979;SDS011;3016;50.308;8.258;2023-06-26T14:33:59;17.77;;;2.50;;
5979;SDS011;3016;50.308;8.258;2023-06-26T14:37:00;20.17;;;2.43;;
5979;SDS011;3016;50.308;8.258;2023-06-26T14:40:00;18.90;;;2.07;;
5979;SDS011;3016;50.308;8.258;2023-06-26T14:43:01;20.50;;;2.53;;
5979;SDS011;3016;50.308;8.258;2023-06-26T14:46:02;18.87;;;2.43;;
5979;SDS011;3016;50.308;8.258;2023-06-26T14:49:03;18.47;;;2.10;;
5979;SDS011;3016;50.308;8.258;2023-06-26T14:52:03;20.37;;;2.07;;
5979;SDS011;3016;50.308;8.258;2023-06-26T14:55:05;17.50;;;1.80;;
5979;SDS011;3016;50.308;8.258;2023-06-26T14:58:06;20.97;;;2.43;;
5979;SDS011;3016;50.308;8.258;2023-06-26T15:01:06;18.70;;;2.23;;
5979;SDS011;3016;50.308;8.258;2023-06-26T15:04:07;19.20;;;2.67;;
5979;SDS011;3016;50.308;8.258;2023-06-26T15:07:08;18.60;;;2.07;;
5979;SDS011;3016;50.308;8.258;2023-06-26T15:10:09;19.63;;;3.00;;
5979;SDS011;3016;50.308;8.258;2023-06-26T15:13:10;18.27;;;2.23;;
5979;SDS011;3016;50.308;8.258;2023-06-26T15:16:11;19.00;;;1.87;;
5979;SDS011;3016;50.308;8.258;2023-06-26T15:19:11;18.73;;;2.17;;
5979;SDS011;3016;50.308;8.258;2023-06-26T15:22:12;18.30;;;2.00;;
5979;SDS011;3016;50.308;8.258;2023-06-26T15:25:14;19.37;;;2.67;;
5979;SDS011;3016;50.308;8.258;2023-06-26T15:28:15;19.30;;;2.20;;
5979;SDS011;3016;50.308;8.258;2023-06-26T15:31:16;21.10;;;2.50;;
5979;SDS011;3016;50.308;8.258;2023-06-26T15:34:17;17.70;;;2.30;;
5979;SDS011;3016;50.308;8.258;2023-06-26T15:37:18;18.60;;;2.20;;
5979;SDS011;3016;50.308;8.258;2023-06-26T15:40:19;19.47;;;2.53;;
5979;SDS011;3016;50.308;8.258;2023-06-26T15:43:19;20.57;;;2.80;;
5979;SDS011;3016;50.308;8.258;2023-06-26T15:46:20;19.30;;;2.53;;
5979;SDS011;3016;50.308;8.258;2023-06-26T15:49:21;22.67;;;2.70;;
5979;SDS011;3016;50.308;8.258;2023-06-26T15:52:21;22.23;;;3.30;;
5979;SDS011;3016;50.308;8.258;2023-06-26T15:55:22;20.70;;;3.00;;
5979;SDS011;3016;50.308;8.258;2023-06-26T15:58:23;17.90;;;2.27;;
5979;SDS011;3016;50.308;8.258;2023-06-26T16:01:24;18.20;;;2.20;;
5979;SDS011;3016;50.308;8.258;2023-06-26T16:04:26;18.60;;;2.43;;
5979;SDS011;3016;50.308;8.258;2023-06-26T16:07:26;18.17;;;2.50;;
5979;SDS011;3016;50.308;8.258;2023-06-26T16:10:29;19.10;;;2.23;;
5979;SDS011;3016;50.308;8.258;2023-06-26T16:13:30;17.47;;;2.30;;
5979;SDS011;3016;50.308;8.258;2023-06-26T16:16:30;18.47;;;2.43;;
5979;SDS011;3016;50.308;8.258;2023-06-26T16:19:31;21.33;;;2.30;;
5979;SDS011;3016;50.308;8.258;2023-06-26T16:22:32;18.47;;;2.07;;
5979;SDS011;3016;50.308;8.258;2023-06-26T16:25:33;18.30;;;2.20;;
5979;SDS011;3016;50.308;8.258;2023-06-26T16:28:34;18.03;;;1.80;;
5979;SDS011;3016;50.308;8.258;2023-06-26T16:31:34;18.10;;;2.00;;
5979;SDS011;3016;50.308;8.258;2023-06-26T16:34:35;17.67;;;2.03;;
5979;SDS011;3016;50.308;8.258;2023-06-26T16:37:36;18.50;;;2.90;;
5979;SDS011;3016;50.308;8.258;2023-06-26T16:40:36;18.03;;;2.20;;
5979;SDS011;3016;50.308;8.258;2023-06-26T16:43:37;18.00;;;2.40;;
5979;SDS011;3016;50.308;8.258;2023-06-26T16:46:38;18.37;;;1.80;;
5979;SDS011;3016;50.308;8.258;2023-06-26T16:49:38;18.50;;;1.70;;
5979;SDS011;3016;50.308;8.258;2023-06-26T16:52:39;18.40;;;2.20;;
5979;SDS011;3016;50.308;8.258;2023-06-26T16:55:43;17.30;;;1.70;;
5979;SDS011;3016;50.308;8.258;2023-06-26T16:58:44;19.57;;;1.90;;
5979;SDS011;3016;50.308;8.258;2023-06-26T17:01:45;18.83;;;1.97;;
5979;SDS011;3016;50.308;8.258;2023-06-26T17:04:46;17.80;;;1.80;;
5979;SDS011;3016;50.308;8.258;2023-06-26T17:07:47;17.13;;;2.10;;
5979;SDS011;3016;50.308;8.258;2023-06-26T17:10:47;19.40;;;2.30;;
5979;SDS011;3016;50.308;8.258;2023-06-26T17:13:48;20.50;;;2.47;;
5979;SDS011;3016;50.308;8.258;2023-06-26T17:16:49;17.70;;;2.00;;
5979;SDS011;3016;50.308;8.258;2023-06-26T17:19:50;19.57;;;2.13;;
5979;SDS011;3016;50.308;8.258;2023-06-26T17:22:51;19.60;;;2.40;;
5979;SDS011;3016;50.308;8.258;2023-06-26T17:25:52;17.60;;;1.90;;
5979;SDS011;3016;50.308;8.258;2023-06-26T17:28:53;17.37;;;1.67;;
5979;SDS011;3016;50.308;8.258;2023-06-26T17:31:53;17.30;;;1.60;;
5979;SDS011;3016;50.308;8.258;2023-06-26T17:34:55;16.80;;;1.60;;
5979;SDS011;3016;50.308;8.258;2023-06-26T17:37:56;19.23;;;2.03;;
5979;SDS011;3016;50.308;8.258;2023-06-26T17:40:57;17.87;;;1.90;;
5979;SDS011;3016;50.308;8.258;2023-06-26T17:43:58;18.40;;;2.20;;
5979;SDS011;3016;50.308;8.258;2023-06-26T17:46:58;17.40;;;1.73;;
5979;SDS011;3016;50.308;8.258;2023-06-26T17:50:00;21.60;;;3.10;;
5979;SDS011;3016;50.308;8.258;2023-06-26T17:53:02;18.40;;;2.00;;
5979;SDS011;3016;50.308;8.258;2023-06-26T17:56:03;16.87;;;1.70;;
5979;SDS011;3016;50.308;8.258;2023-06-26T17:59:04;18.10;;;1.83;;
5979;SDS011;3016;50.308;8.258;2023-06-26T18:02:06;19.50;;;2.50;;
5979;SDS011;3016;50.308;8.258;2023-06-26T18:05:07;18.30;;;2.10;;
5979;SDS011;3016;50.308;8.258;2023-06-26T18:08:08;18.37;;;2.13;;
5979;SDS011;3016;50.308;8.258;2023-06-26T18:11:10;19.07;;;2.20;;
5979;SDS011;3016;50.308;8.258;2023-06-26T18:14:11;18.63;;;2.27;;
5979;SDS011;3016;50.308;8.258;2023-06-26T18:17:13;19.20;;;2.37;;
5979;SDS011;3016;50.308;8.258;2023-06-26T18:20:14;17.80;;;2.30;;
5979;SDS011;3016;50.308;8.258;2023-06-26T18:23:15;17.20;;;1.80;;
5979;SDS011;3016;50.308;8.258;2023-06-26T18:26:19;17.30;;;2.10;;
5979;SDS011;3016;50.308;8.258;2023-06-26T18:29:19;19.90;;;2.20;;
5979;SDS011;3016;50.308;8.258;2023-06-26T18:32:20;19.10;;;2.13;;
5979;SDS011;3016;50.308;8.258;2023-06-26T18:35:21;17.83;;;2.10;;